sensor_id;sensor_type;location;lat;lon;timestamp;P1;durP1;ratioP1;P2;durP2;ratioP2
26620;SDS011;14253;44.840;10.444;2023-03-19T00:00:23;25.58;;;15.65;;
26620;SDS011;14253;44.840;10.444;2023-03-19T00:02:49;25.90;;;15.10;;
26620;SDS011;14253;44.840;10.444;2023-03-19T00:05:16;20.77;;;14.40;;
26620;SDS011;14253;44.840;10.444;2023-03-19T00:07:43;31.63;;;15.75;;
26620;SDS011;14253;44.840;10.444;2023-03-19T00:10:09;25.80;;;16.05;;
26620;SDS011;14253;44.840;10.444;2023-03-19T00:12:35;27.15;;;16.77;;
26620;SDS011;14253;44.840;10.444;2023-03-19T00:15:02;23.83;;;15.77;;
26620;SDS011;14253;44.840;10.444;2023-03-19T00:17:28;22.92;;;15.15;;
26620;SDS011;14253;44.840;10.444;2023-03-19T00:19:54;26.77;;;16.13;;
26620;SDS011;14253;44.840;10.444;2023-03-19T00:22:20;29.40;;;14.90;;
26620;SDS011;14253;44.840;10.444;2023-03-19T00:24:46;22.92;;;15.68;;
26620;SDS011;14253;44.840;10.444;2023-03-19T00:27:12;29.75;;;16.02;;
26620;SDS011;14253;44.840;10.444;2023-03-19T00:29:39;26.05;;;14.75;;
26620;SDS011;14253;44.840;10.444;2023-03-19T00:32:05;22.50;;;15.52;;
26620;SDS011;14253;44.840;10.444;2023-03-19T00:34:31;30.40;;;17.10;;
26620;SDS011;14253;44.840;10.444;2023-03-19T00:36:57;26.83;;;17.00;;
26620;SDS011;14253;44.840;10.444;2023-03-19T00:39:23;23.83;;;16.20;;
26620;SDS011;14253;44.840;10.444;2023-03-19T00:41:49;30.65;;;16.73;;
26620;SDS011;14253;44.840;10.444;2023-03-19T00:44:16;26.38;;;16.05;;
26620;SDS011;14253;44.840;10.444;2023-03-19T00:46:43;26.15;;;16.45;;
26620;SDS011;14253;44.840;10.444;2023-03-19T00:49:10;23.63;;;16.77;;
26620;SDS011;14253;44.840;10.444;2023-03-19T00:51:36;28.17;;;18.23;;
26620;SDS011;14253;44.840;10.444;2023-03-19T00:54:02;26.55;;;15.60;;
26620;SDS011;14253;44.840;10.444;2023-03-19T00:56:28;25.67;;;16.10;;
26620;SDS011;14253;44.840;10.444;2023-03-19T00:58:55;28.45;;;16.40;;
26620;SDS011;14253;44.840;10.444;2023-03-19T01:01:21;27.33;;;15.60;;
26620;SDS011;14253;44.840;10.444;2023-03-19T01:03:48;27.85;;;15.15;;
26620;SDS011;14253;44.840;10.444;2023-03-19T01:06:14;25.70;;;16.13;;
26620;SDS011;14253;44.840;10.444;2023-03-19T01:08:40;29.60;;;15.70;;
26620;SDS011;14253;44.840;10.444;2023-03-19T01:11:07;29.90;;;16.42;;
26620;SDS011;14253;44.840;10.444;2023-03-19T01:13:35;29.08;;;17.27;;
26620;SDS011;14253;44.840;10.444;2023-03-19T01:16:01;39.22;;;18.85;;
26620;SDS011;14253;44.840;10.444;2023-03-19T01:18:27;33.78;;;19.42;;
26620;SDS011;14253;44.840;10.444;2023-03-19T01:20:53;37.17;;;18.67;;
26620;SDS011;14253;44.840;10.444;2023-03-19T01:23:19;41.38;;;22.15;;
26620;SDS011;14253;44.840;10.444;2023-03-19T01:25:45;38.47;;;21.27;;
26620;SDS011;14253;44.840;10.444;2023-03-19T01:28:12;42.67;;;21.80;;
26620;SDS011;14253;44.840;10.444;2023-03-19T01:30:38;41.78;;;22.42;;
26620;SDS011;14253;44.840;10.444;2023-03-19T01:33:11;42.15;;;21.35;;
26620;SDS011;14253;44.840;10.444;2023-03-19T01:35:57;44.05;;;21.70;;
26620;SDS011;14253;44.840;10.444;2023-03-19T01:38:31;40.20;;;21.67;;
26620;SDS011;14253;44.840;10.444;2023-03-19T01:41:01;39.95;;;21.83;;
26620;SDS011;14253;44.840;10.444;2023-03-19T01:43:28;49.72;;;23.15;;
26620;SDS011;14253;44.840;10.444;2023-03-19T01:46:28;42.95;;;21.65;;
26620;SDS011;14253;44.840;10.444;2023-03-19T01:49:22;41.20;;;21.55;;
26620;SDS011;14253;44.840;10.444;2023-03-19T01:52:01;43.35;;;22.02;;
26620;SDS011;14253;44.840;10.444;2023-03-19T01:54:47;40.13;;;21.77;;
26620;SDS011;14253;44.840;10.444;2023-03-19T01:57:48;39.35;;;21.35;;
26620;SDS011;14253;44.840;10.444;2023-03-19T02:00:33;42.15;;;22.48;;
26620;SDS011;14253;44.840;10.444;2023-03-19T02:03:01;36.03;;;20.45;;
26620;SDS011;14253;44.840;10.444;2023-03-19T02:05:57;36.97;;;21.08;;
26620;SDS011;14253;44.840;10.444;2023-03-19T02:08:24;36.55;;;19.63;;
26620;SDS011;14253;44.840;10.444;2023-03-19T02:10:52;32.72;;;19.73;;
26620;SDS011;14253;44.840;10.444;2023-03-19T02:13:21;38.50;;;20.42;;
26620;SDS011;14253;44.840;10.444;2023-03-19T02:15:48;34.60;;;20.45;;
26620;SDS011;14253;44.840;10.444;2023-03-19T02:18:15;37.00;;;20.83;;
26620;SDS011;14253;44.840;10.444;2023-03-19T02:20:53;41.13;;;21.88;;
26620;SDS011;14253;44.840;10.444;2023-03-19T02:23:40;41.28;;;22.15;;
26620;SDS011;14253;44.840;10.444;2023-03-19T02:26:20;39.40;;;21.83;;
26620;SDS011;14253;44.840;10.444;2023-03-19T02:28:50;49.15;;;22.75;;
26620;SDS011;14253;44.840;10.444;2023-03-19T02:31:23;38.67;;;21.73;;
26620;SDS011;14253;44.840;10.444;2023-03-19T02:33:56;39.67;;;22.25;;
26620;SDS011;14253;44.840;10.444;2023-03-19T02:36:34;41.25;;;22.83;;
26620;SDS011;14253;44.840;10.444;2023-03-19T02:39:06;39.95;;;22.15;;
26620;SDS011;14253;44.840;10.444;2023-03-19T02:41:39;40.05;;;22.38;;
26620;SDS011;14253;44.840;10.444;2023-03-19T02:44:06;41.35;;;22.83;;
26620;SDS011;14253;44.840;10.444;2023-03-19T02:46:36;40.13;;;22.27;;
26620;SDS011;14253;44.840;10.444;2023-03-19T02:49:02;38.08;;;22.00;;
26620;SDS011;14253;44.840;10.444;2023-03-19T02:51:29;34.30;;;20.45;;
26620;SDS011;14253;44.840;10.444;2023-03-19T02:53:55;32.97;;;21.25;;
26620;SDS011;14253;44.840;10.444;2023-03-19T02:56:21;31.00;;;19.92;;
26620;SDS011;14253;44.840;10.444;2023-03-19T02:58:47;34.67;;;20.63;;
26620;SDS011;14253;44.840;10.444;2023-03-19T03:01:13;32.83;;;20.25;;
26620;SDS011;14253;44.840;10.444;2023-03-19T03:03:39;36.33;;;21.30;;
26620;SDS011;14253;44.840;10.444;2023-03-19T03:06:05;32.97;;;20.75;;
26620;SDS011;14253;44.840;10.444;2023-03-19T03:08:31;40.45;;;21.17;;
26620;SDS011;14253;44.840;10.444;2023-03-19T03:10:57;37.40;;;20.73;;
26620;SDS011;14253;44.840;10.444;2023-03-19T03:13:23;33.03;;;20.48;;
26620;SDS011;14253;44.840;10.444;2023-03-19T03:15:49;31.08;;;19.02;;
26620;SDS011;14253;44.840;10.444;2023-03-19T03:18:15;32.35;;;20.55;;
26620;SDS011;14253;44.840;10.444;2023-03-19T03:20:41;29.35;;;20.30;;
26620;SDS011;14253;44.840;10.444;2023-03-19T03:23:07;31.38;;;19.88;;
26620;SDS011;14253;44.840;10.444;2023-03-19T03:25:34;35.78;;;20.40;;
26620;SDS011;14253;44.840;10.444;2023-03-19T03:28:00;30.75;;;21.00;;
26620;SDS011;14253;44.840;10.444;2023-03-19T03:30:27;33.50;;;20.52;;
26620;SDS011;14253;44.840;10.444;2023-03-19T03:32:53;36.55;;;21.17;;
26620;SDS011;14253;44.840;10.444;2023-03-19T03:35:19;35.28;;;20.50;;
26620;SDS011;14253;44.840;10.444;2023-03-19T03:37:50;34.20;;;22.15;;
26620;SDS011;14253;44.840;10.444;2023-03-19T03:40:16;40.17;;;24.75;;
26620;SDS011;14253;44.840;10.444;2023-03-19T03:42:42;36.72;;;23.50;;
26620;SDS011;14253;44.840;10.444;2023-03-19T03:45:09;35.38;;;22.80;;
26620;SDS011;14253;44.840;10.444;2023-03-19T03:47:37;37.53;;;22.02;;
26620;SDS011;14253;44.840;10.444;2023-03-19T03:50:04;35.50;;;22.38;;
26620;SDS011;14253;44.840;10.444;2023-03-19T03:52:31;34.65;;;21.80;;
26620;SDS011;14253;44.840;10.444;2023-03-19T03:54:59;36.72;;;23.45;;
26620;SDS011;14253;44.840;10.444;2023-03-19T03:57:25;38.92;;;23.35;;
26620;SDS011;14253;44.840;10.444;2023-03-19T03:59:53;41.63;;;23.35;;
26620;SDS011;14253;44.840;10.444;2023-03-19T04:02:19;37.30;;;22.23;;
26620;SDS011;14253;44.840;10.444;2023-03-19T04:04:46;36.33;;;21.83;;
26620;SDS011;14253;44.840;10.444;2023-03-19T04:07:13;37.63;;;20.10;;
26620;SDS011;14253;44.840;10.444;2023-03-19T04:09:43;37.95;;;21.25;;
26620;SDS011;14253;44.840;10.444;2023-03-19T04:12:11;39.55;;;21.63;;
26620;SDS011;14253;44.840;10.444;2023-03-19T04:14:37;33.10;;;20.08;;
26620;SDS011;14253;44.840;10.444;2023-03-19T04:17:03;31.88;;;20.63;;
26620;SDS011;14253;44.840;10.444;2023-03-19T04:19:30;37.50;;;21.55;;
26620;SDS011;14253;44.840;10.444;2023-03-19T04:21:57;33.83;;;20.83;;
26620;SDS011;14253;44.840;10.444;2023-03-19T04:24:24;41.40;;;21.13;;
26620;SDS011;14253;44.840;10.444;2023-03-19T04:26:51;33.58;;;19.58;;
26620;SDS011;14253;44.840;10.444;2023-03-19T04:29:18;37.42;;;21.73;;
26620;SDS011;14253;44.840;10.444;2023-03-19T04:31:44;35.72;;;21.25;;
26620;SDS011;14253;44.840;10.444;2023-03-19T04:34:10;35.92;;;22.35;;
26620;SDS011;14253;44.840;10.444;2023-03-19T04:36:37;35.33;;;21.85;;
26620;SDS011;14253;44.840;10.444;2023-03-19T04:39:03;35.53;;;23.60;;
26620;SDS011;14253;44.840;10.444;2023-03-19T04:41:30;32.58;;;21.10;;
26620;SDS011;14253;44.840;10.444;2023-03-19T04:44:19;37.67;;;23.17;;
26620;SDS011;14253;44.840;10.444;2023-03-19T04:46:46;36.25;;;21.58;;
26620;SDS011;14253;44.840;10.444;2023-03-19T04:49:14;39.00;;;21.40;;
26620;SDS011;14253;44.840;10.444;2023-03-19T04:51:41;40.40;;;23.73;;
26620;SDS011;14253;44.840;10.444;2023-03-19T04:54:07;36.00;;;21.67;;
26620;SDS011;14253;44.840;10.444;2023-03-19T04:56:34;37.60;;;22.67;;
26620;SDS011;14253;44.840;10.444;2023-03-19T04:59:00;32.97;;;21.40;;
26620;SDS011;14253;44.840;10.444;2023-03-19T05:01:27;31.35;;;20.77;;
26620;SDS011;14253;44.840;10.444;2023-03-19T05:03:59;34.70;;;22.35;;
26620;SDS011;14253;44.840;10.444;2023-03-19T05:06:30;38.25;;;22.02;;
26620;SDS011;14253;44.840;10.444;2023-03-19T05:08:57;35.33;;;21.10;;
26620;SDS011;14253;44.840;10.444;2023-03-19T05:11:24;30.13;;;20.92;;
26620;SDS011;14253;44.840;10.444;2023-03-19T05:14:02;31.67;;;21.15;;
26620;SDS011;14253;44.840;10.444;2023-03-19T05:16:49;36.78;;;22.33;;
26620;SDS011;14253;44.840;10.444;2023-03-19T05:19:16;34.28;;;21.05;;
26620;SDS011;14253;44.840;10.444;2023-03-19T05:21:42;33.22;;;20.90;;
26620;SDS011;14253;44.840;10.444;2023-03-19T05:24:08;34.90;;;20.98;;
26620;SDS011;14253;44.840;10.444;2023-03-19T05:26:37;32.67;;;21.02;;
26620;SDS011;14253;44.840;10.444;2023-03-19T05:29:12;35.13;;;21.30;;
26620;SDS011;14253;44.840;10.444;2023-03-19T05:32:07;33.28;;;20.90;;
26620;SDS011;14253;44.840;10.444;2023-03-19T05:34:35;35.90;;;20.55;;
26620;SDS011;14253;44.840;10.444;2023-03-19T05:37:01;37.60;;;21.40;;
26620;SDS011;14253;44.840;10.444;2023-03-19T05:39:28;32.92;;;20.73;;
26620;SDS011;14253;44.840;10.444;2023-03-19T05:41:59;33.85;;;21.92;;
26620;SDS011;14253;44.840;10.444;2023-03-19T05:44:27;35.75;;;22.08;;
26620;SDS011;14253;44.840;10.444;2023-03-19T05:47:12;37.30;;;21.85;;
26620;SDS011;14253;44.840;10.444;2023-03-19T05:49:43;32.15;;;21.58;;
26620;SDS011;14253;44.840;10.444;2023-03-19T05:52:12;37.75;;;22.67;;
26620;SDS011;14253;44.840;10.444;2023-03-19T05:54:38;34.05;;;20.02;;
26620;SDS011;14253;44.840;10.444;2023-03-19T05:57:25;35.15;;;20.85;;
26620;SDS011;14253;44.840;10.444;2023-03-19T06:00:12;31.65;;;21.25;;
26620;SDS011;14253;44.840;10.444;2023-03-19T06:02:41;38.08;;;21.77;;
26620;SDS011;14253;44.840;10.444;2023-03-19T06:05:26;40.42;;;21.98;;
26620;SDS011;14253;44.840;10.444;2023-03-19T06:07:57;34.17;;;21.38;;
26620;SDS011;14253;44.840;10.444;2023-03-19T06:10:35;32.85;;;21.33;;
26620;SDS011;14253;44.840;10.444;2023-03-19T06:13:05;33.95;;;20.98;;
26620;SDS011;14253;44.840;10.444;2023-03-19T06:15:41;33.95;;;21.00;;
26620;SDS011;14253;44.840;10.444;2023-03-19T06:18:30;33.72;;;20.65;;
26620;SDS011;14253;44.840;10.444;2023-03-19T06:20:56;33.75;;;21.05;;
26620;SDS011;14253;44.840;10.444;2023-03-19T06:23:22;37.13;;;20.20;;
26620;SDS011;14253;44.840;10.444;2023-03-19T06:25:48;34.10;;;20.17;;
26620;SDS011;14253;44.840;10.444;2023-03-19T06:28:15;35.88;;;21.42;;
26620;SDS011;14253;44.840;10.444;2023-03-19T06:30:43;36.83;;;21.67;;
26620;SDS011;14253;44.840;10.444;2023-03-19T06:33:27;34.10;;;22.48;;
26620;SDS011;14253;44.840;10.444;2023-03-19T06:35:57;38.95;;;22.48;;
26620;SDS011;14253;44.840;10.444;2023-03-19T06:38:23;36.17;;;22.75;;
26620;SDS011;14253;44.840;10.444;2023-03-19T06:40:50;40.60;;;23.08;;
26620;SDS011;14253;44.840;10.444;2023-03-19T06:43:17;34.70;;;21.42;;
26620;SDS011;14253;44.840;10.444;2023-03-19T06:45:43;37.42;;;23.08;;
26620;SDS011;14253;44.840;10.444;2023-03-19T06:48:11;45.45;;;26.95;;
26620;SDS011;14253;44.840;10.444;2023-03-19T06:50:37;40.38;;;27.45;;
26620;SDS011;14253;44.840;10.444;2023-03-19T06:53:03;40.25;;;27.98;;
26620;SDS011;14253;44.840;10.444;2023-03-19T06:55:29;45.80;;;24.45;;
26620;SDS011;14253;44.840;10.444;2023-03-19T06:57:56;45.72;;;23.73;;
26620;SDS011;14253;44.840;10.444;2023-03-19T07:00:30;39.72;;;23.02;;
26620;SDS011;14253;44.840;10.444;2023-03-19T07:02:57;45.67;;;24.13;;
26620;SDS011;14253;44.840;10.444;2023-03-19T07:05:23;34.30;;;21.95;;
26620;SDS011;14253;44.840;10.444;2023-03-19T07:07:49;40.30;;;23.52;;
26620;SDS011;14253;44.840;10.444;2023-03-19T07:10:19;44.78;;;23.98;;
26620;SDS011;14253;44.840;10.444;2023-03-19T07:12:45;33.20;;;21.08;;
26620;SDS011;14253;44.840;10.444;2023-03-19T07:15:12;35.15;;;21.35;;
26620;SDS011;14253;44.840;10.444;2023-03-19T07:17:38;40.38;;;22.15;;
26620;SDS011;14253;44.840;10.444;2023-03-19T07:20:04;36.28;;;21.77;;
26620;SDS011;14253;44.840;10.444;2023-03-19T07:22:31;37.08;;;22.73;;
26620;SDS011;14253;44.840;10.444;2023-03-19T07:24:57;37.40;;;22.30;;
26620;SDS011;14253;44.840;10.444;2023-03-19T07:27:23;36.65;;;21.95;;
26620;SDS011;14253;44.840;10.444;2023-03-19T07:29:49;33.67;;;21.20;;
26620;SDS011;14253;44.840;10.444;2023-03-19T07:32:15;42.58;;;21.85;;
26620;SDS011;14253;44.840;10.444;2023-03-19T07:34:41;35.58;;;21.63;;
26620;SDS011;14253;44.840;10.444;2023-03-19T07:37:06;34.55;;;21.55;;
26620;SDS011;14253;44.840;10.444;2023-03-19T07:39:32;34.78;;;20.80;;
26620;SDS011;14253;44.840;10.444;2023-03-19T07:41:58;32.58;;;20.65;;
26620;SDS011;14253;44.840;10.444;2023-03-19T07:44:24;44.80;;;21.17;;
26620;SDS011;14253;44.840;10.444;2023-03-19T07:46:50;34.33;;;19.63;;
26620;SDS011;14253;44.840;10.444;2023-03-19T07:49:16;35.72;;;21.52;;
26620;SDS011;14253;44.840;10.444;2023-03-19T07:51:42;34.78;;;21.40;;
26620;SDS011;14253;44.840;10.444;2023-03-19T07:54:08;36.05;;;20.58;;
26620;SDS011;14253;44.840;10.444;2023-03-19T07:56:34;36.05;;;19.83;;
26620;SDS011;14253;44.840;10.444;2023-03-19T07:59:00;34.92;;;20.35;;
26620;SDS011;14253;44.840;10.444;2023-03-19T08:01:26;32.83;;;22.00;;
26620;SDS011;14253;44.840;10.444;2023-03-19T08:03:52;38.22;;;22.42;;
26620;SDS011;14253;44.840;10.444;2023-03-19T08:06:18;41.53;;;23.02;;
26620;SDS011;14253;44.840;10.444;2023-03-19T08:08:44;34.83;;;22.02;;
26620;SDS011;14253;44.840;10.444;2023-03-19T08:11:10;37.05;;;21.08;;
26620;SDS011;14253;44.840;10.444;2023-03-19T08:13:36;34.90;;;19.80;;
26620;SDS011;14253;44.840;10.444;2023-03-19T08:16:02;31.38;;;18.55;;
26620;SDS011;14253;44.840;10.444;2023-03-19T08:18:28;36.72;;;19.17;;
26620;SDS011;14253;44.840;10.444;2023-03-19T08:20:54;35.60;;;19.38;;
26620;SDS011;14253;44.840;10.444;2023-03-19T08:23:20;32.63;;;20.10;;
26620;SDS011;14253;44.840;10.444;2023-03-19T08:25:46;30.17;;;18.67;;
26620;SDS011;14253;44.840;10.444;2023-03-19T08:28:12;34.47;;;20.52;;
26620;SDS011;14253;44.840;10.444;2023-03-19T08:30:38;38.03;;;21.98;;
26620;SDS011;14253;44.840;10.444;2023-03-19T08:33:04;35.20;;;20.58;;
26620;SDS011;14253;44.840;10.444;2023-03-19T08:35:30;37.35;;;22.52;;
26620;SDS011;14253;44.840;10.444;2023-03-19T08:37:57;38.55;;;22.45;;
26620;SDS011;14253;44.840;10.444;2023-03-19T08:40:23;38.05;;;22.42;;
26620;SDS011;14253;44.840;10.444;2023-03-19T08:42:49;40.90;;;23.85;;
26620;SDS011;14253;44.840;10.444;2023-03-19T08:45:16;49.45;;;28.35;;
26620;SDS011;14253;44.840;10.444;2023-03-19T08:47:42;79.68;;;44.25;;
26620;SDS011;14253;44.840;10.444;2023-03-19T08:50:08;36.67;;;22.30;;
26620;SDS011;14253;44.840;10.444;2023-03-19T08:52:35;36.95;;;22.20;;
26620;SDS011;14253;44.840;10.444;2023-03-19T08:55:01;38.63;;;23.20;;
26620;SDS011;14253;44.840;10.444;2023-03-19T08:57:28;37.35;;;23.38;;
26620;SDS011;14253;44.840;10.444;2023-03-19T08:59:55;32.13;;;20.95;;
26620;SDS011;14253;44.840;10.444;2023-03-19T09:02:21;34.08;;;22.00;;
26620;SDS011;14253;44.840;10.444;2023-03-19T09:04:47;34.42;;;21.00;;
26620;SDS011;14253;44.840;10.444;2023-03-19T09:07:14;39.00;;;23.17;;
26620;SDS011;14253;44.840;10.444;2023-03-19T09:09:44;36.50;;;21.67;;
26620;SDS011;14253;44.840;10.444;2023-03-19T09:12:11;35.45;;;22.23;;
26620;SDS011;14253;44.840;10.444;2023-03-19T09:14:39;35.50;;;22.17;;
26620;SDS011;14253;44.840;10.444;2023-03-19T09:17:05;36.08;;;23.17;;
26620;SDS011;14253;44.840;10.444;2023-03-19T09:19:31;42.38;;;22.70;;
26620;SDS011;14253;44.840;10.444;2023-03-19T09:21:59;38.97;;;22.83;;
26620;SDS011;14253;44.840;10.444;2023-03-19T09:24:25;39.30;;;24.13;;
26620;SDS011;14253;44.840;10.444;2023-03-19T09:26:51;34.00;;;22.35;;
26620;SDS011;14253;44.840;10.444;2023-03-19T09:29:17;46.38;;;26.10;;
26620;SDS011;14253;44.840;10.444;2023-03-19T09:31:43;39.95;;;24.70;;
26620;SDS011;14253;44.840;10.444;2023-03-19T09:34:13;35.78;;;23.67;;
26620;SDS011;14253;44.840;10.444;2023-03-19T09:36:39;38.13;;;23.42;;
26620;SDS011;14253;44.840;10.444;2023-03-19T09:39:06;37.20;;;23.52;;
26620;SDS011;14253;44.840;10.444;2023-03-19T09:41:54;42.05;;;24.90;;
26620;SDS011;14253;44.840;10.444;2023-03-19T09:44:42;40.88;;;24.42;;
26620;SDS011;14253;44.840;10.444;2023-03-19T09:49:47;34.97;;;24.67;;
26620;SDS011;14253;44.840;10.444;2023-03-19T09:57:47;39.53;;;25.25;;
26620;SDS011;14253;44.840;10.444;2023-03-19T10:17:18;38.07;;;26.27;;
26620;SDS011;14253;44.840;10.444;2023-03-19T10:19:51;39.10;;;25.90;;
26620;SDS011;14253;44.840;10.444;2023-03-19T10:22:39;38.25;;;24.65;;
26620;SDS011;14253;44.840;10.444;2023-03-19T10:25:15;37.13;;;25.10;;
26620;SDS011;14253;44.840;10.444;2023-03-19T10:28:06;39.33;;;25.20;;
26620;SDS011;14253;44.840;10.444;2023-03-19T10:30:41;34.63;;;24.35;;
26620;SDS011;14253;44.840;10.444;2023-03-19T10:36:10;38.28;;;24.23;;
26620;SDS011;14253;44.840;10.444;2023-03-19T10:38:40;40.45;;;28.13;;
26620;SDS011;14253;44.840;10.444;2023-03-19T10:41:17;35.67;;;25.05;;
26620;SDS011;14253;44.840;10.444;2023-03-19T10:43:46;35.22;;;24.70;;
26620;SDS011;14253;44.840;10.444;2023-03-19T10:46:21;37.55;;;24.95;;
26620;SDS011;14253;44.840;10.444;2023-03-19T10:48:47;37.67;;;25.70;;
26620;SDS011;14253;44.840;10.444;2023-03-19T10:51:14;42.22;;;29.05;;
26620;SDS011;14253;44.840;10.444;2023-03-19T10:53:44;40.63;;;24.30;;
26620;SDS011;14253;44.840;10.444;2023-03-19T10:56:20;41.13;;;26.33;;
26620;SDS011;14253;44.840;10.444;2023-03-19T10:58:56;40.38;;;26.15;;
26620;SDS011;14253;44.840;10.444;2023-03-19T11:01:31;41.83;;;27.58;;
26620;SDS011;14253;44.840;10.444;2023-03-19T11:04:10;35.50;;;25.63;;
26620;SDS011;14253;44.840;10.444;2023-03-19T11:06:39;33.75;;;23.85;;
26620;SDS011;14253;44.840;10.444;2023-03-19T11:17:01;36.70;;;24.48;;
26620;SDS011;14253;44.840;10.444;2023-03-19T11:19:51;40.47;;;25.80;;
26620;SDS011;14253;44.840;10.444;2023-03-19T11:22:43;35.90;;;24.63;;
26620;SDS011;14253;44.840;10.444;2023-03-19T11:27:43;40.78;;;25.23;;
26620;SDS011;14253;44.840;10.444;2023-03-19T11:30:13;37.55;;;25.50;;
26620;SDS011;14253;44.840;10.444;2023-03-19T11:33:04;41.45;;;26.48;;
26620;SDS011;14253;44.840;10.444;2023-03-19T11:38:40;38.30;;;25.75;;
26620;SDS011;14253;44.840;10.444;2023-03-19T11:41:15;39.70;;;24.80;;
26620;SDS011;14253;44.840;10.444;2023-03-19T11:44:04;38.30;;;24.15;;
26620;SDS011;14253;44.840;10.444;2023-03-19T11:46:50;35.17;;;23.70;;
26620;SDS011;14253;44.840;10.444;2023-03-19T11:49:41;37.60;;;24.52;;
26620;SDS011;14253;44.840;10.444;2023-03-19T11:57:56;34.47;;;22.13;;
26620;SDS011;14253;44.840;10.444;2023-03-19T12:00:47;37.55;;;23.38;;
26620;SDS011;14253;44.840;10.444;2023-03-19T12:14:27;33.92;;;22.23;;
26620;SDS011;14253;44.840;10.444;2023-03-19T12:17:06;31.85;;;22.60;;
26620;SDS011;14253;44.840;10.444;2023-03-19T12:29:20;31.13;;;21.65;;
26620;SDS011;14253;44.840;10.444;2023-03-19T12:39:38;30.52;;;20.55;;
26620;SDS011;14253;44.840;10.444;2023-03-19T12:42:11;29.15;;;19.98;;
26620;SDS011;14253;44.840;10.444;2023-03-19T12:44:43;31.77;;;19.77;;
26620;SDS011;14253;44.840;10.444;2023-03-19T12:47:21;29.98;;;19.30;;
26620;SDS011;14253;44.840;10.444;2023-03-19T12:54:54;29.23;;;20.45;;
26620;SDS011;14253;44.840;10.444;2023-03-19T12:57:49;32.55;;;19.52;;
26620;SDS011;14253;44.840;10.444;2023-03-19T13:11:16;30.95;;;19.52;;
26620;SDS011;14253;44.840;10.444;2023-03-19T13:19:45;28.13;;;18.50;;
26620;SDS011;14253;44.840;10.444;2023-03-19T13:22:28;24.02;;;17.90;;
26620;SDS011;14253;44.840;10.444;2023-03-19T13:24:58;27.27;;;17.80;;
26620;SDS011;14253;44.840;10.444;2023-03-19T13:27:28;26.92;;;17.98;;
26620;SDS011;14253;44.840;10.444;2023-03-19T13:30:00;24.70;;;18.10;;
26620;SDS011;14253;44.840;10.444;2023-03-19T13:32:39;30.53;;;19.07;;
26620;SDS011;14253;44.840;10.444;2023-03-19T13:38:51;27.10;;;17.48;;
26620;SDS011;14253;44.840;10.444;2023-03-19T13:45:45;26.08;;;19.15;;
26620;SDS011;14253;44.840;10.444;2023-03-19T13:48:35;28.98;;;19.85;;
26620;SDS011;14253;44.840;10.444;2023-03-19T13:59:30;29.02;;;18.80;;
26620;SDS011;14253;44.840;10.444;2023-03-19T14:02:01;27.83;;;17.63;;
26620;SDS011;14253;44.840;10.444;2023-03-19T14:07:42;26.13;;;17.10;;
26620;SDS011;14253;44.840;10.444;2023-03-19T14:10:20;24.63;;;17.55;;
26620;SDS011;14253;44.840;10.444;2023-03-19T14:13:08;27.13;;;18.20;;
26620;SDS011;14253;44.840;10.444;2023-03-19T14:16:02;22.77;;;17.08;;
26620;SDS011;14253;44.840;10.444;2023-03-19T14:18:50;22.83;;;15.73;;
26620;SDS011;14253;44.840;10.444;2023-03-19T14:27:03;26.52;;;16.75;;
26620;SDS011;14253;44.840;10.444;2023-03-19T14:29:43;23.30;;;15.68;;
26620;SDS011;14253;44.840;10.444;2023-03-19T14:32:14;22.88;;;15.80;;
26620;SDS011;14253;44.840;10.444;2023-03-19T14:34:43;22.15;;;14.70;;
26620;SDS011;14253;44.840;10.444;2023-03-19T14:42:50;23.00;;;14.60;;
26620;SDS011;14253;44.840;10.444;2023-03-19T14:45:55;22.27;;;13.77;;
26620;SDS011;14253;44.840;10.444;2023-03-19T14:53:36;20.05;;;14.10;;
26620;SDS011;14253;44.840;10.444;2023-03-19T14:56:14;21.88;;;15.07;;
26620;SDS011;14253;44.840;10.444;2023-03-19T14:58:54;20.48;;;13.20;;
26620;SDS011;14253;44.840;10.444;2023-03-19T15:01:25;18.45;;;13.50;;
26620;SDS011;14253;44.840;10.444;2023-03-19T15:04:01;19.08;;;13.68;;
26620;SDS011;14253;44.840;10.444;2023-03-19T15:06:32;20.45;;;12.65;;
26620;SDS011;14253;44.840;10.444;2023-03-19T15:09:15;21.00;;;13.35;;
26620;SDS011;14253;44.840;10.444;2023-03-19T15:11:57;20.85;;;13.50;;
26620;SDS011;14253;44.840;10.444;2023-03-19T15:17:34;21.77;;;13.48;;
26620;SDS011;14253;44.840;10.444;2023-03-19T15:20:12;20.20;;;12.50;;
26620;SDS011;14253;44.840;10.444;2023-03-19T15:22:59;15.75;;;12.27;;
26620;SDS011;14253;44.840;10.444;2023-03-19T15:28:07;18.13;;;11.52;;
26620;SDS011;14253;44.840;10.444;2023-03-19T15:30:38;19.05;;;11.82;;
26620;SDS011;14253;44.840;10.444;2023-03-19T15:33:20;17.55;;;12.27;;
26620;SDS011;14253;44.840;10.444;2023-03-19T15:35:55;19.35;;;12.63;;
26620;SDS011;14253;44.840;10.444;2023-03-19T15:38:47;17.35;;;12.00;;
26620;SDS011;14253;44.840;10.444;2023-03-19T15:41:17;16.58;;;10.75;;
26620;SDS011;14253;44.840;10.444;2023-03-19T15:43:44;17.80;;;12.68;;
26620;SDS011;14253;44.840;10.444;2023-03-19T15:46:11;20.00;;;11.98;;
26620;SDS011;14253;44.840;10.444;2023-03-19T15:48:50;16.70;;;12.00;;
26620;SDS011;14253;44.840;10.444;2023-03-19T15:51:26;19.40;;;11.95;;
26620;SDS011;14253;44.840;10.444;2023-03-19T15:53:53;19.08;;;12.93;;
26620;SDS011;14253;44.840;10.444;2023-03-19T15:56:20;19.73;;;13.00;;
26620;SDS011;14253;44.840;10.444;2023-03-19T15:58:48;18.52;;;11.75;;
26620;SDS011;14253;44.840;10.444;2023-03-19T16:04:04;17.20;;;12.32;;
26620;SDS011;14253;44.840;10.444;2023-03-19T16:06:36;18.52;;;11.77;;
26620;SDS011;14253;44.840;10.444;2023-03-19T16:11:46;17.17;;;12.25;;
26620;SDS011;14253;44.840;10.444;2023-03-19T16:14:26;15.85;;;10.90;;
26620;SDS011;14253;44.840;10.444;2023-03-19T16:16:58;17.02;;;11.40;;
26620;SDS011;14253;44.840;10.444;2023-03-19T16:19:52;16.60;;;11.30;;
26620;SDS011;14253;44.840;10.444;2023-03-19T16:22:38;17.25;;;11.55;;
26620;SDS011;14253;44.840;10.444;2023-03-19T16:25:14;18.05;;;11.38;;
26620;SDS011;14253;44.840;10.444;2023-03-19T16:27:45;16.42;;;10.48;;
26620;SDS011;14253;44.840;10.444;2023-03-19T16:33:03;14.38;;;10.27;;
26620;SDS011;14253;44.840;10.444;2023-03-19T16:35:31;17.00;;;10.57;;
26620;SDS011;14253;44.840;10.444;2023-03-19T16:38:09;16.48;;;11.77;;
26620;SDS011;14253;44.840;10.444;2023-03-19T16:40:42;15.75;;;10.73;;
26620;SDS011;14253;44.840;10.444;2023-03-19T16:43:19;18.42;;;12.10;;
26620;SDS011;14253;44.840;10.444;2023-03-19T16:45:48;16.38;;;10.85;;
26620;SDS011;14253;44.840;10.444;2023-03-19T16:48:17;16.40;;;11.07;;
26620;SDS011;14253;44.840;10.444;2023-03-19T16:50:43;16.48;;;10.32;;
26620;SDS011;14253;44.840;10.444;2023-03-19T16:53:21;16.65;;;10.95;;
26620;SDS011;14253;44.840;10.444;2023-03-19T16:55:50;17.80;;;12.13;;
26620;SDS011;14253;44.840;10.444;2023-03-19T16:58:26;17.80;;;12.20;;